createdAt,value
2024-01-29T00:00:06.183Z,76.42
2024-01-29T00:02:07.953Z,76.09
2024-01-29T00:04:09.793Z,76.80
2024-01-29T00:06:14.543Z,76.41
2024-01-29T00:08:16.795Z,76.33
2024-01-29T00:10:18.884Z,76.31
2024-01-29T00:12:20.632Z,76.65
2024-01-29T00:14:22.461Z,76.65
2024-01-29T00:16:24.859Z,76.70
2024-01-29T00:18:26.723Z,76.48
2024-01-29T00:20:28.395Z,76.71
2024-01-29T00:22:30.903Z,77.24
2024-01-29T00:24:32.632Z,77.40
2024-01-29T00:26:34.404Z,77.60
2024-01-29T00:28:36.085Z,77.59
2024-01-29T00:30:38.077Z,77.07
2024-01-29T00:32:41.931Z,77.27
2024-01-29T00:34:44.212Z,77.42
2024-01-29T00:36:45.961Z,77.06
2024-01-29T00:38:49.079Z,77.05
2024-01-29T00:40:51.069Z,77.45
2024-01-29T00:42:52.839Z,77.29
2024-01-29T00:44:54.577Z,77.42
2024-01-29T00:46:56.287Z,77.02
2024-01-29T00:48:58.256Z,76.33
2024-01-29T00:51:02.559Z,76.98
2024-01-29T00:53:04.712Z,77.43
2024-01-29T00:55:07.146Z,77.40
2024-01-29T00:57:08.953Z,77.06
2024-01-29T00:59:11.041Z,77.54
2024-01-29T01:01:13.795Z,77.33
2024-01-29T01:03:15.643Z,77.18
2024-01-29T01:05:17.524Z,76.56
2024-01-29T01:07:19.313Z,76.56
2024-01-29T01:09:21.001Z,76.37
2024-01-29T01:11:22.765Z,76.30
2024-01-29T01:13:24.467Z,76.59
2024-01-29T01:15:26.317Z,76.44
2024-01-29T01:17:28.066Z,76.23
2024-01-29T01:19:29.922Z,76.33
2024-01-29T01:21:31.673Z,76.13
2024-01-29T01:23:33.485Z,75.92
2024-01-29T01:25:35.243Z,76.44
2024-01-29T01:27:37.016Z,75.94
2024-01-29T01:29:38.861Z,76.36
2024-01-29T01:31:40.704Z,76.21
2024-01-29T01:33:42.582Z,76.00
2024-01-29T01:35:44.476Z,75.84
2024-01-29T01:37:46.196Z,76.18
2024-01-29T01:39:48.262Z,76.27
2024-01-29T01:41:51.623Z,75.69
2024-01-29T01:43:53.333Z,75.52
2024-01-29T01:46:07.589Z,75.94
2024-01-29T01:48:09.505Z,76.15
2024-01-29T01:50:12.039Z,75.91
2024-01-29T01:52:13.860Z,76.58
2024-01-29T01:54:16.694Z,76.89
2024-01-29T01:56:19.076Z,76.95
2024-01-29T01:58:21.342Z,77.10
2024-01-29T02:00:23.076Z,77.92
2024-01-29T02:02:24.931Z,77.45
2024-01-29T02:04:26.669Z,77.36
2024-01-29T02:06:29.494Z,77.37
2024-01-29T02:08:31.370Z,77.73
2024-01-29T02:10:33.102Z,77.95
2024-01-29T02:12:34.907Z,78.03
2024-01-29T02:14:36.770Z,78.44
2024-01-29T02:16:38.508Z,78.49
2024-01-29T02:18:46.319Z,78.45
2024-01-29T02:20:48.247Z,78.90
2024-01-29T02:22:49.888Z,78.76
2024-01-29T02:24:51.698Z,79.09
2024-01-29T02:26:53.760Z,79.27
2024-01-29T02:28:55.625Z,79.40
2024-01-29T02:30:57.583Z,79.10
2024-01-29T02:33:00.046Z,79.43
2024-01-29T02:35:01.966Z,79.24
2024-01-29T02:37:04.105Z,79.79
2024-01-29T02:39:05.990Z,79.10
2024-01-29T02:41:07.706Z,79.37
2024-01-29T02:43:09.520Z,79.06
2024-01-29T02:45:11.193Z,79.53
2024-01-29T02:47:13.026Z,80.26
2024-01-29T02:49:15.004Z,79.94
2024-01-29T02:51:16.850Z,80.64
2024-01-29T02:53:18.526Z,80.54
2024-01-29T02:55:20.118Z,79.72
2024-01-29T02:57:25.658Z,80.03
2024-01-29T02:59:27.458Z,80.63
2024-01-29T03:01:29.299Z,81.19
2024-01-29T03:03:31.096Z,80.71
2024-01-29T03:05:32.782Z,80.82
2024-01-29T03:07:34.497Z,80.65
2024-01-29T03:09:36.540Z,81.28
2024-01-29T03:11:38.207Z,81.20
2024-01-29T03:13:40.043Z,81.28
2024-01-29T03:15:41.772Z,81.34
2024-01-29T03:17:43.727Z,81.69
2024-01-29T03:19:45.485Z,81.00
2024-01-29T03:21:47.577Z,81.06
2024-01-29T03:23:49.297Z,81.53
2024-01-29T03:25:51.101Z,81.24
2024-01-29T03:27:54.627Z,81.95
2024-01-29T03:29:57.026Z,81.33
2024-01-29T03:32:00.149Z,81.31
2024-01-29T03:34:02.001Z,81.12
2024-01-29T03:36:08.189Z,81.25
2024-01-29T03:38:10.000Z,81.15
2024-01-29T03:40:12.480Z,81.58
2024-01-29T03:42:14.191Z,81.43
2024-01-29T03:44:17.090Z,80.90
2024-01-29T03:46:18.923Z,81.22
2024-01-29T03:48:21.273Z,80.92
2024-01-29T03:50:23.095Z,80.87
2024-01-29T03:52:24.826Z,81.51
2024-01-29T03:54:26.684Z,81.23
2024-01-29T03:56:28.352Z,82.02
2024-01-29T03:58:30.029Z,81.84
2024-01-29T04:00:31.886Z,81.62
2024-01-29T04:02:33.628Z,81.83
2024-01-29T04:04:35.548Z,81.90
2024-01-29T04:06:41.558Z,81.34
2024-01-29T04:08:43.760Z,81.48
2024-01-29T04:10:45.494Z,81.41
2024-01-29T04:12:48.290Z,81.25
2024-01-29T04:14:50.055Z,81.70
2024-01-29T04:16:51.965Z,81.99
2024-01-29T04:18:53.869Z,81.96
2024-01-29T04:20:55.652Z,81.56
2024-01-29T04:22:57.314Z,82.14
2024-01-29T04:25:07.840Z,81.99
2024-01-29T04:27:09.802Z,81.58
2024-01-29T04:29:11.563Z,81.84
2024-01-29T04:31:14.758Z,81.74
2024-01-29T04:33:16.452Z,81.45
2024-01-29T04:35:18.292Z,81.65
2024-01-29T04:37:20.089Z,81.52
2024-01-29T04:39:21.958Z,81.75
2024-01-29T04:41:23.728Z,82.00
2024-01-29T04:43:25.433Z,82.46
2024-01-29T04:45:27.123Z,82.57
2024-01-29T04:47:29.300Z,82.88
2024-01-29T04:49:31.057Z,82.47
2024-01-29T04:51:32.936Z,82.92
2024-01-29T04:53:35.408Z,82.42
2024-01-29T04:55:37.094Z,82.56
2024-01-29T04:57:38.900Z,82.39
2024-01-29T04:59:40.793Z,82.87
2024-01-29T05:01:42.728Z,82.73
2024-01-29T05:03:46.282Z,83.05
2024-01-29T05:05:53.802Z,83.47
2024-01-29T05:07:55.593Z,83.24
2024-01-29T05:09:57.409Z,83.70
2024-01-29T05:11:59.361Z,83.63
2024-01-29T05:14:01.073Z,84.30
2024-01-29T05:16:06.289Z,83.71
2024-01-29T05:18:09.111Z,83.43
2024-01-29T05:20:11.116Z,83.52
2024-01-29T05:22:13.805Z,83.31
2024-01-29T05:24:15.620Z,83.27
2024-01-29T05:26:17.542Z,83.18
2024-01-29T05:28:19.775Z,82.73
2024-01-29T05:30:21.709Z,83.10
2024-01-29T05:32:23.401Z,83.43
2024-01-29T05:34:25.180Z,83.14
2024-01-29T05:36:27.026Z,83.54
2024-01-29T05:38:29.040Z,83.41
2024-01-29T05:40:31.211Z,83.58
2024-01-29T05:42:32.972Z,83.76
2024-01-29T05:44:34.805Z,83.93
2024-01-29T05:46:36.535Z,83.76
2024-01-29T05:48:39.834Z,83.77
2024-01-29T05:50:42.175Z,83.86
2024-01-29T05:52:44.430Z,84.19
2024-01-29T05:54:46.175Z,84.13
2024-01-29T05:56:50.979Z,83.91
2024-01-29T05:58:53.329Z,84.08
2024-01-29T06:00:55.119Z,83.98
2024-01-29T06:02:57.483Z,84.25
2024-01-29T06:04:59.230Z,84.60
2024-01-29T06:07:04.824Z,84.41
2024-01-29T06:09:20.238Z,84.14
2024-01-29T06:11:27.926Z,84.39
2024-01-29T06:13:33.169Z,84.60
2024-01-29T06:15:34.939Z,84.43
2024-01-29T06:17:36.876Z,84.29
2024-01-29T06:19:53.546Z,84.19
2024-01-29T06:22:00.287Z,84.29
2024-01-29T06:24:04.340Z,84.19
2024-01-29T06:26:06.154Z,84.28
2024-01-29T06:28:08.755Z,84.23
2024-01-29T06:30:10.963Z,84.58
2024-01-29T06:32:12.606Z,84.53
2024-01-29T06:34:14.372Z,84.77
2024-01-29T06:36:17.109Z,85.36
2024-01-29T06:38:19.441Z,84.77
2024-01-29T06:40:28.150Z,85.29
2024-01-29T06:42:29.920Z,85.18
2024-01-29T06:44:31.675Z,85.10
2024-01-29T06:46:33.397Z,85.08
2024-01-29T06:48:39.954Z,85.02
2024-01-29T06:50:41.979Z,85.19
2024-01-29T06:52:43.801Z,85.60
2024-01-29T06:54:45.725Z,85.38
2024-01-29T06:56:47.837Z,85.42
2024-01-29T06:58:50.867Z,85.57
2024-01-29T07:00:53.096Z,85.37
2024-01-29T07:02:55.015Z,85.29
2024-01-29T07:04:56.676Z,85.22
2024-01-29T07:06:58.458Z,85.29
2024-01-29T07:09:00.222Z,85.33
2024-01-29T07:11:01.878Z,85.19
2024-01-29T07:13:03.818Z,86.05
2024-01-29T07:15:05.982Z,86.27
2024-01-29T07:17:07.968Z,85.57
2024-01-29T07:19:10.453Z,85.53
2024-01-29T07:21:12.589Z,85.56
2024-01-29T07:23:14.269Z,85.03
2024-01-29T07:25:16.378Z,85.50
2024-01-29T07:27:18.735Z,85.31
2024-01-29T07:29:20.456Z,85.43
2024-01-29T07:31:25.416Z,86.03
2024-01-29T07:33:27.298Z,85.98
2024-01-29T07:35:29.990Z,86.07
2024-01-29T07:37:31.808Z,86.61
2024-01-29T07:39:33.689Z,86.24
2024-01-29T07:41:36.876Z,86.19
2024-01-29T07:43:39.687Z,86.30
2024-01-29T07:45:41.557Z,86.56
2024-01-29T07:47:43.345Z,86.31
2024-01-29T07:49:45.666Z,87.05
2024-01-29T07:51:47.586Z,87.07
2024-01-29T07:53:49.367Z,87.29
2024-01-29T07:55:51.069Z,87.06
2024-01-29T07:57:54.167Z,86.81
2024-01-29T07:59:56.009Z,86.35
2024-01-29T08:01:58.201Z,86.46
2024-01-29T08:04:03.115Z,86.69
2024-01-29T08:06:05.586Z,86.78
2024-01-29T08:08:07.865Z,86.63
2024-01-29T08:10:09.825Z,86.10
2024-01-29T08:12:11.829Z,86.48
2024-01-29T08:14:13.703Z,86.71
2024-01-29T08:16:15.642Z,86.33
2024-01-29T08:18:18.463Z,86.47
2024-01-29T08:20:20.779Z,86.60
2024-01-29T08:22:22.590Z,86.51
2024-01-29T08:24:24.546Z,86.33
2024-01-29T08:26:26.818Z,86.25
2024-01-29T08:28:28.524Z,86.51
2024-01-29T08:30:30.226Z,86.14
2024-01-29T08:32:31.920Z,86.42
2024-01-29T08:34:33.775Z,86.72
2024-01-29T08:36:35.678Z,86.83
2024-01-29T08:38:37.974Z,86.20
2024-01-29T08:40:39.757Z,86.01
2024-01-29T08:42:41.503Z,86.20
2024-01-29T08:44:43.613Z,85.79
2024-01-29T08:46:45.435Z,86.10
2024-01-29T08:48:47.175Z,86.56
2024-01-29T08:50:48.881Z,86.53
2024-01-29T08:52:50.708Z,86.64
2024-01-29T08:54:52.796Z,86.95
2024-01-29T08:56:54.775Z,86.90
2024-01-29T08:59:08.869Z,86.53
2024-01-29T09:01:10.616Z,87.04
2024-01-29T09:03:12.426Z,86.82
2024-01-29T09:05:14.403Z,86.90
2024-01-29T09:07:19.971Z,86.89
2024-01-29T09:09:22.221Z,86.19
2024-01-29T09:11:23.981Z,86.99
2024-01-29T09:13:26.476Z,86.67
2024-01-29T09:15:28.583Z,86.55
2024-01-29T09:17:30.464Z,85.91
2024-01-29T09:19:38.721Z,86.20
2024-01-29T09:21:42.720Z,86.42
2024-01-29T09:23:44.509Z,86.33
2024-01-29T09:25:49.362Z,86.60
2024-01-29T09:27:51.487Z,87.33
2024-01-29T09:29:53.311Z,87.36
2024-01-29T09:31:55.371Z,87.10
2024-01-29T09:33:57.333Z,87.32
2024-01-29T09:36:11.648Z,87.22
2024-01-29T09:38:15.530Z,87.56
2024-01-29T09:40:17.508Z,87.61
2024-01-29T09:42:19.615Z,87.85
2024-01-29T09:44:22.729Z,87.76
2024-01-29T09:46:39.250Z,87.36
2024-01-29T09:48:46.502Z,87.62
2024-01-29T09:50:56.274Z,87.35
2024-01-29T09:52:59.492Z,87.13
2024-01-29T09:55:03.734Z,86.92
2024-01-29T09:57:06.251Z,86.75
2024-01-29T09:59:15.312Z,86.59
2024-01-29T10:01:21.275Z,86.37
2024-01-29T10:03:29.120Z,86.28
2024-01-29T10:05:32.637Z,86.23
2024-01-29T10:07:35.927Z,86.31
2024-01-29T10:09:38.332Z,86.45
2024-01-29T10:11:42.781Z,86.15
2024-01-29T10:13:48.458Z,86.10
2024-01-29T10:15:57.042Z,86.15
2024-01-29T10:18:00.804Z,85.83
2024-01-29T10:20:02.870Z,85.54
2024-01-29T10:22:15.187Z,85.17
2024-01-29T10:24:18.523Z,85.02
2024-01-29T10:26:22.968Z,85.36
2024-01-29T10:28:27.753Z,84.81
2024-01-29T10:30:31.951Z,84.92
2024-01-29T10:32:34.000Z,84.26
2024-01-29T10:34:35.778Z,84.31
2024-01-29T10:36:40.714Z,84.16
2024-01-29T10:38:46.982Z,84.17
2024-01-29T10:40:49.358Z,84.00
2024-01-29T10:42:52.365Z,83.54
2024-01-29T10:44:54.820Z,83.33
2024-01-29T10:47:00.727Z,82.74
2024-01-29T10:49:03.198Z,82.68
2024-01-29T10:51:06.270Z,82.23
2024-01-29T10:53:09.216Z,81.98
2024-01-29T10:55:12.518Z,82.15
2024-01-29T10:57:15.355Z,81.30
2024-01-29T10:59:19.760Z,80.72
2024-01-29T11:01:22.013Z,79.93
2024-01-29T11:03:24.684Z,79.53
2024-01-29T11:05:27.229Z,79.19
2024-01-29T11:07:30.448Z,79.09
2024-01-29T11:09:33.931Z,78.58
2024-01-29T11:11:36.989Z,77.74
2024-01-29T11:13:39.362Z,77.86
2024-01-29T11:15:43.079Z,77.82
2024-01-29T11:17:46.013Z,77.57
2024-01-29T11:19:52.064Z,77.19
2024-01-29T11:21:53.827Z,76.97
2024-01-29T11:23:58.898Z,77.51
2024-01-29T11:26:05.398Z,77.59
2024-01-29T11:28:09.481Z,77.32
2024-01-29T11:30:17.621Z,77.69
2024-01-29T11:32:19.553Z,77.21
2024-01-29T11:34:29.219Z,76.65
2024-01-29T11:36:31.155Z,76.69
2024-01-29T11:38:45.765Z,76.63
2024-01-29T11:40:47.525Z,76.25
2024-01-29T11:42:49.641Z,76.42
2024-01-29T11:44:52.117Z,75.96
2024-01-29T11:46:56.646Z,75.61
2024-01-29T11:49:02.602Z,75.67
2024-01-29T11:51:04.925Z,75.60
2024-01-29T11:53:11.204Z,75.89
2024-01-29T11:55:14.380Z,75.39
2024-01-29T11:57:16.717Z,75.26
2024-01-29T11:59:18.465Z,74.98
2024-01-29T12:01:20.385Z,74.20
2024-01-29T12:03:23.974Z,73.95
2024-01-29T12:05:25.876Z,73.76
2024-01-29T12:07:27.913Z,73.10
2024-01-29T12:09:32.191Z,72.79
2024-01-29T12:11:34.059Z,73.04
2024-01-29T12:13:35.729Z,72.98
2024-01-29T12:15:37.474Z,73.69
2024-01-29T12:17:47.356Z,73.54
2024-01-29T12:19:53.018Z,73.53
2024-01-29T12:21:54.887Z,73.47
2024-01-29T12:23:56.890Z,73.71
2024-01-29T12:25:59.899Z,73.87
2024-01-29T12:28:06.153Z,73.85
2024-01-29T12:30:15.232Z,73.98
2024-01-29T12:32:21.491Z,74.27
2024-01-29T12:34:24.537Z,74.33
2024-01-29T12:36:26.553Z,73.99
2024-01-29T12:38:28.333Z,74.53
2024-01-29T12:40:30.352Z,74.26
2024-01-29T12:43:04.706Z,74.56
2024-01-29T12:45:10.436Z,74.48
2024-01-29T12:47:18.842Z,74.40
2024-01-29T12:49:20.673Z,74.44
2024-01-29T12:51:28.895Z,74.76
2024-01-29T12:53:30.561Z,75.14
2024-01-29T12:55:32.364Z,75.41
2024-01-29T12:57:34.215Z,75.74
2024-01-29T12:59:36.245Z,75.48
2024-01-29T13:01:38.404Z,75.51
2024-01-29T13:03:41.436Z,75.31
2024-01-29T13:05:43.658Z,75.41
2024-01-29T13:07:45.328Z,75.39
2024-01-29T13:09:47.309Z,75.48
2024-01-29T13:11:49.600Z,74.95
2024-01-29T13:13:51.382Z,75.20
2024-01-29T13:15:57.458Z,75.36
2024-01-29T13:18:00.508Z,75.02
2024-01-29T13:20:02.550Z,74.89
2024-01-29T13:22:05.350Z,75.30
2024-01-29T13:24:07.153Z,75.35
2024-01-29T13:26:09.412Z,75.81
2024-01-29T13:28:11.566Z,75.84
2024-01-29T13:30:13.942Z,75.27
2024-01-29T13:32:15.694Z,75.04
2024-01-29T13:34:21.310Z,74.89
2024-01-29T13:36:23.580Z,74.77
2024-01-29T13:38:25.320Z,74.69
2024-01-29T13:40:27.216Z,74.77
2024-01-29T13:42:29.256Z,74.94
2024-01-29T13:44:30.897Z,74.67
2024-01-29T13:46:32.752Z,75.73
2024-01-29T13:48:34.668Z,75.21
2024-01-29T13:50:37.216Z,75.71
2024-01-29T13:52:39.238Z,75.60
2024-01-29T13:54:41.911Z,74.98
2024-01-29T13:56:43.758Z,74.94
2024-01-29T13:58:45.569Z,74.95
2024-01-29T14:00:47.364Z,75.04
2024-01-29T14:02:49.148Z,74.91
2024-01-29T14:04:50.853Z,74.17
2024-01-29T14:06:58.696Z,74.54
2024-01-29T14:09:04.872Z,75.32
2024-01-29T14:11:16.787Z,74.99
2024-01-29T14:13:18.929Z,74.37
2024-01-29T14:15:21.066Z,74.52
2024-01-29T14:17:22.840Z,74.88
2024-01-29T14:19:25.067Z,74.49
2024-01-29T14:21:27.711Z,74.89
2024-01-29T14:23:30.292Z,74.78
2024-01-29T14:25:32.030Z,74.82
2024-01-29T14:27:33.786Z,74.96
2024-01-29T14:29:35.687Z,74.37
2024-01-29T14:31:37.375Z,74.40
2024-01-29T14:33:39.262Z,75.12
2024-01-29T14:35:48.331Z,74.61
2024-01-29T14:37:50.066Z,74.72
2024-01-29T14:39:51.770Z,74.84
2024-01-29T14:41:53.770Z,75.09
2024-01-29T14:43:55.499Z,74.67
2024-01-29T14:46:03.749Z,75.02
2024-01-29T14:48:07.338Z,74.25
2024-01-29T14:50:09.109Z,74.75
2024-01-29T14:52:10.810Z,74.86
2024-01-29T14:54:14.719Z,74.78
2024-01-29T14:56:16.748Z,74.86
2024-01-29T14:58:19.532Z,75.25
2024-01-29T15:00:22.314Z,75.16
2024-01-29T15:02:24.029Z,74.99
2024-01-29T15:04:26.003Z,75.48
2024-01-29T15:06:28.712Z,75.58
2024-01-29T15:08:30.821Z,75.93
2024-01-29T15:10:32.592Z,75.72
2024-01-29T15:12:34.680Z,75.72
2024-01-29T15:14:36.454Z,75.87
2024-01-29T15:16:38.508Z,76.31
2024-01-29T15:18:43.002Z,76.16
2024-01-29T15:20:44.956Z,75.81
2024-01-29T15:22:46.866Z,75.46
2024-01-29T15:24:48.671Z,75.35
2024-01-29T15:26:50.632Z,75.22
2024-01-29T15:28:52.567Z,75.47
2024-01-29T15:30:54.334Z,75.40
2024-01-29T15:32:56.128Z,75.52
2024-01-29T15:34:58.370Z,75.49
2024-01-29T15:37:00.194Z,75.58
2024-01-29T15:39:02.942Z,75.71
2024-01-29T15:41:05.185Z,75.55
2024-01-29T15:43:07.106Z,75.31
2024-01-29T15:45:10.803Z,75.37
2024-01-29T15:47:13.663Z,75.09
2024-01-29T15:49:16.016Z,75.08
2024-01-29T15:51:21.517Z,75.12
2024-01-29T15:53:25.287Z,74.67
2024-01-29T15:55:27.910Z,74.95
2024-01-29T15:57:29.642Z,75.02
2024-01-29T15:59:31.376Z,75.12
2024-01-29T16:01:33.216Z,75.38
2024-01-29T16:03:37.873Z,75.33
2024-01-29T16:05:39.708Z,75.37
2024-01-29T16:07:43.416Z,75.85
2024-01-29T16:09:45.173Z,75.50
2024-01-29T16:11:46.930Z,75.66
2024-01-29T16:13:48.631Z,75.59
2024-01-29T16:16:07.243Z,75.69
2024-01-29T16:18:10.193Z,75.50
2024-01-29T16:20:14.043Z,75.38
2024-01-29T16:22:16.026Z,75.91
2024-01-29T16:24:17.865Z,75.79
2024-01-29T16:26:20.895Z,75.97
2024-01-29T16:28:22.664Z,75.93
2024-01-29T16:30:24.420Z,76.06
2024-01-29T16:32:26.223Z,76.51
2024-01-29T16:34:30.263Z,76.61
2024-01-29T16:36:32.326Z,76.51
2024-01-29T16:38:34.017Z,76.70
2024-01-29T16:40:36.030Z,76.88
2024-01-29T16:42:38.475Z,76.81
2024-01-29T16:44:43.350Z,77.05
2024-01-29T16:46:45.188Z,76.97
2024-01-29T16:48:47.183Z,77.28
2024-01-29T16:50:48.967Z,76.99
2024-01-29T16:52:52.782Z,76.84
2024-01-29T16:54:54.706Z,77.06
2024-01-29T16:57:08.593Z,77.04
2024-01-29T16:59:11.020Z,76.73
2024-01-29T17:01:13.063Z,76.99
2024-01-29T17:03:14.958Z,76.81
2024-01-29T17:05:17.430Z,77.25
2024-01-29T17:07:19.253Z,76.49
2024-01-29T17:09:21.866Z,76.87
2024-01-29T17:11:23.711Z,77.08
2024-01-29T17:13:25.492Z,77.60
2024-01-29T17:15:27.324Z,77.19
2024-01-29T17:17:29.153Z,77.39
2024-01-29T17:19:31.053Z,77.56
2024-01-29T17:21:33.078Z,77.03
2024-01-29T17:23:35.434Z,76.81
2024-01-29T17:25:37.473Z,76.73
2024-01-29T17:27:39.261Z,76.88
2024-01-29T17:29:41.285Z,76.35
2024-01-29T17:31:42.987Z,76.51
2024-01-29T17:33:44.728Z,76.42
2024-01-29T17:35:58.667Z,76.26
2024-01-29T17:38:01.327Z,76.08
2024-01-29T17:40:03.448Z,76.05
2024-01-29T17:42:05.463Z,76.08
2024-01-29T17:44:09.762Z,76.17
2024-01-29T17:46:11.507Z,76.18
2024-01-29T17:48:13.730Z,76.12
2024-01-29T17:50:16.633Z,76.17
2024-01-29T17:52:18.556Z,76.26
2024-01-29T17:54:21.165Z,75.67
2024-01-29T17:56:23.231Z,75.52
2024-01-29T17:58:25.563Z,75.97
2024-01-29T18:00:29.704Z,75.36
2024-01-29T18:02:31.632Z,75.90
2024-01-29T18:04:33.754Z,75.76
2024-01-29T18:06:46.333Z,75.77
2024-01-29T18:08:48.058Z,75.31
2024-01-29T18:10:50.296Z,75.54
2024-01-29T18:12:51.930Z,75.11
2024-01-29T18:14:54.256Z,75.27
2024-01-29T18:17:01.703Z,75.57
2024-01-29T18:19:03.876Z,75.45
2024-01-29T18:21:05.738Z,75.24
2024-01-29T18:23:09.894Z,75.37
2024-01-29T18:25:11.784Z,75.69
2024-01-29T18:27:14.950Z,75.27
2024-01-29T18:29:16.709Z,75.21
2024-01-29T18:31:22.028Z,75.01
2024-01-29T18:33:23.969Z,75.58
2024-01-29T18:35:27.684Z,75.90
2024-01-29T18:37:29.443Z,75.07
2024-01-29T18:39:31.218Z,75.72
2024-01-29T18:41:33.091Z,75.85
2024-01-29T18:43:34.760Z,75.42
2024-01-29T18:45:36.556Z,76.17
2024-01-29T18:47:38.344Z,75.93
2024-01-29T18:49:40.191Z,75.72
2024-01-29T18:52:05.082Z,75.61
2024-01-29T18:54:07.486Z,75.77
2024-01-29T18:56:09.220Z,75.66
2024-01-29T18:58:10.865Z,75.80
2024-01-29T19:00:13.257Z,75.09
2024-01-29T19:02:16.049Z,74.87
2024-01-29T19:04:17.977Z,74.70
2024-01-29T19:06:20.234Z,74.19
2024-01-29T19:08:21.972Z,74.20
2024-01-29T19:10:23.668Z,74.35
2024-01-29T19:12:25.439Z,74.36
2024-01-29T19:14:27.196Z,74.85
2024-01-29T19:16:28.938Z,74.17
2024-01-29T19:18:30.931Z,74.48
2024-01-29T19:20:32.688Z,74.29
2024-01-29T19:22:35.232Z,74.74
2024-01-29T19:24:36.976Z,74.49
2024-01-29T19:26:38.706Z,74.51
2024-01-29T19:28:42.545Z,74.77
2024-01-29T19:30:46.794Z,74.67
2024-01-29T19:32:48.649Z,75.13
2024-01-29T19:34:50.633Z,75.05
2024-01-29T19:36:53.354Z,75.45
2024-01-29T19:38:55.501Z,75.87
2024-01-29T19:40:57.502Z,75.64
2024-01-29T19:43:00.039Z,75.60
2024-01-29T19:45:01.778Z,75.47
2024-01-29T19:47:03.550Z,75.34
2024-01-29T19:49:05.375Z,75.59
2024-01-29T19:51:07.234Z,75.16
2024-01-29T19:53:09.149Z,75.08
2024-01-29T19:55:10.877Z,75.03
2024-01-29T19:57:12.685Z,74.86
2024-01-29T19:59:14.540Z,74.75
2024-01-29T20:01:16.435Z,75.48
2024-01-29T20:03:18.127Z,75.03
2024-01-29T20:05:19.946Z,75.18
2024-01-29T20:07:22.957Z,75.20
2024-01-29T20:09:25.218Z,75.10
2024-01-29T20:11:27.489Z,75.57
2024-01-29T20:13:29.422Z,74.88
2024-01-29T20:15:31.157Z,74.85
2024-01-29T20:17:32.880Z,74.84
2024-01-29T20:19:34.677Z,74.68
2024-01-29T20:21:41.036Z,74.68
2024-01-29T20:23:45.665Z,74.53
2024-01-29T20:25:50.442Z,74.79
2024-01-29T20:27:52.339Z,74.70
2024-01-29T20:29:54.158Z,74.28
2024-01-29T20:31:56.059Z,74.16
2024-01-29T20:33:59.381Z,74.27
2024-01-29T20:36:03.982Z,74.18
2024-01-29T20:38:05.882Z,74.23
2024-01-29T20:40:08.680Z,74.19
2024-01-29T20:42:13.355Z,73.74
2024-01-29T20:44:16.386Z,73.70
2024-01-29T20:46:18.907Z,74.27
2024-01-29T20:48:20.713Z,74.10
2024-01-29T20:50:24.039Z,74.16
2024-01-29T20:52:28.687Z,73.88
2024-01-29T20:54:30.755Z,73.87
2024-01-29T20:56:33.923Z,73.89
2024-01-29T20:58:48.115Z,73.48
2024-01-29T21:00:51.646Z,73.58
2024-01-29T21:02:53.545Z,73.29
2024-01-29T21:04:55.694Z,73.39
2024-01-29T21:07:02.366Z,73.68
2024-01-29T21:09:04.872Z,73.30
2024-01-29T21:11:06.958Z,72.99
2024-01-29T21:13:10.100Z,72.99
2024-01-29T21:15:11.904Z,72.86
2024-01-29T21:17:14.041Z,73.02
2024-01-29T21:19:15.984Z,73.04
2024-01-29T21:21:18.260Z,73.67
2024-01-29T21:23:20.397Z,72.90
2024-01-29T21:25:23.199Z,73.03
2024-01-29T21:27:25.140Z,73.18
2024-01-29T21:29:28.372Z,72.83
2024-01-29T21:31:30.907Z,73.04
2024-01-29T21:33:34.514Z,73.21
2024-01-29T21:35:37.407Z,73.28
2024-01-29T21:37:39.094Z,73.03
2024-01-29T21:39:40.942Z,73.21
2024-01-29T21:41:43.784Z,73.42
2024-01-29T21:43:45.499Z,73.20
2024-01-29T21:45:50.589Z,73.07
2024-01-29T21:47:52.424Z,72.82
2024-01-29T21:49:54.185Z,73.22
2024-01-29T21:51:55.898Z,73.53
2024-01-29T21:53:57.591Z,73.73
2024-01-29T21:58:01.262Z,73.94
2024-01-29T22:00:05.144Z,73.42
2024-01-29T22:02:07.079Z,73.42
2024-01-29T22:04:09.044Z,73.57
2024-01-29T22:06:11.815Z,73.88
2024-01-29T22:08:16.587Z,73.90
2024-01-29T22:10:19.209Z,73.50
2024-01-29T22:12:21.001Z,73.52
2024-01-29T22:14:22.713Z,73.52
2024-01-29T22:16:26.132Z,74.01
2024-01-29T22:18:28.186Z,73.65
2024-01-29T22:20:30.102Z,74.12
2024-01-29T22:22:31.891Z,74.39
2024-01-29T22:24:33.752Z,74.98
2024-01-29T22:26:35.484Z,75.13
2024-01-29T22:28:41.452Z,75.64
2024-01-29T22:30:43.181Z,76.32
2024-01-29T22:32:46.936Z,76.02
2024-01-29T22:34:48.877Z,76.25
2024-01-29T22:36:50.759Z,76.54
2024-01-29T22:38:52.408Z,76.46
2024-01-29T22:40:54.155Z,76.44
2024-01-29T22:42:55.875Z,76.17
2024-01-29T22:44:57.593Z,76.42
2024-01-29T22:46:59.385Z,76.28
2024-01-29T22:49:01.167Z,76.62
2024-01-29T22:51:02.929Z,76.69
2024-01-29T22:53:04.825Z,76.99
2024-01-29T22:55:06.977Z,77.63
2024-01-29T22:57:08.838Z,77.95
2024-01-29T22:59:10.970Z,77.46
2024-01-29T23:01:12.788Z,77.87
2024-01-29T23:03:14.517Z,77.69
2024-01-29T23:05:16.218Z,78.01
2024-01-29T23:07:18.209Z,77.92
2024-01-29T23:09:19.923Z,78.75
2024-01-29T23:11:21.675Z,78.06
2024-01-29T23:13:23.626Z,78.10
2024-01-29T23:15:25.306Z,78.34
2024-01-29T23:17:30.596Z,78.23
2024-01-29T23:19:32.255Z,78.25
2024-01-29T23:21:35.872Z,77.87
2024-01-29T23:23:37.704Z,78.46
2024-01-29T23:25:39.821Z,78.27
2024-01-29T23:27:41.575Z,78.36
2024-01-29T23:29:43.330Z,78.45
2024-01-29T23:31:44.982Z,78.57
2024-01-29T23:33:46.709Z,78.57
2024-01-29T23:35:53.202Z,78.66
2024-01-29T23:37:55.847Z,79.12
2024-01-29T23:39:58.027Z,79.73
2024-01-29T23:41:59.703Z,80.07
2024-01-29T23:44:01.388Z,79.97
2024-01-29T23:46:03.335Z,80.67
2024-01-29T23:48:05.538Z,80.06
2024-01-29T23:50:08.444Z,80.81
2024-01-29T23:52:17.937Z,80.01
2024-01-29T23:54:24.107Z,79.88
2024-01-29T23:56:26.810Z,80.22
2024-01-29T23:58:28.529Z,80.30
